Time,TemperatureF,DewpointF,PressureIn,WindDirection,WindDirectionDegrees,WindSpeedMPH,WindSpeedGustMPH,Humidity,HourlyPrecipIn,Conditions,Clouds,dailyrainin,SolarRadiationWatts/m^2,SoftwareType,DateUTC
2013-04-26 00:02:00,38.0,25.0,-100.00,SE,125,2.0,5.0,59,0.00,,,0.00,0.000000,,2013-04-26 05:02:00,
2013-04-26 00:32:00,40.0,25.0,-100.00,ENE,77,3.0,6.0,55,0.00,,,0.00,0.000000,,2013-04-26 05:32:00,
2013-04-26 00:42:00,40.0,25.0,-100.00,ENE,77,3.0,6.0,55,0.00,,,0.00,0.000000,,2013-04-26 05:42:00,
2013-04-26 00:52:00,40.0,25.0,-100.00,ENE,77,3.0,6.0,55,0.00,,,0.00,0.000000,,2013-04-26 05:52:00,
2013-04-26 01:02:00,40.0,25.0,-100.00,ENE,77,3.0,6.0,55,0.00,,,0.00,0.000000,,2013-04-26 06:02:00,
2013-04-26 01:32:00,41.0,27.0,-100.00,SE,131,3.0,6.0,57,0.00,,,-99.99,0.000000,,2013-04-26 06:32:00,
2013-04-26 01:42:00,41.0,27.0,-100.00,SE,131,3.0,6.0,57,0.00,,,-99.99,0.000000,,2013-04-26 06:42:00,
2013-04-26 01:52:00,41.0,27.0,-100.00,SE,131,3.0,6.0,57,0.00,,,-99.99,0.000000,,2013-04-26 06:52:00,
2013-04-26 02:01:00,41.0,27.0,-100.00,SE,131,3.0,6.0,57,0.00,,,-99.99,0.000000,,2013-04-26 07:01:00,
2013-04-26 02:32:00,43.0,26.0,-100.00,SE,139,5.0,9.0,50,0.01,,,0.01,0.000000,,2013-04-26 07:32:00,
2013-04-26 02:42:00,43.0,26.0,-100.00,SE,139,5.0,9.0,50,0.01,,,0.01,0.000000,,2013-04-26 07:42:00,
2013-04-26 02:52:00,43.0,26.0,-100.00,SE,139,5.0,9.0,50,0.01,,,0.01,0.000000,,2013-04-26 07:52:00,
2013-04-26 03:02:00,43.0,26.0,-100.00,SE,139,5.0,9.0,50,0.01,,,0.01,0.000000,,2013-04-26 08:02:00,
2013-04-26 03:32:00,40.0,36.0,-100.00,ENE,59,4.0,9.0,86,0.07,,,0.08,0.000000,,2013-04-26 08:32:00,
2013-04-26 03:42:00,40.0,36.0,-100.00,ENE,59,4.0,9.0,86,0.07,,,0.08,0.000000,,2013-04-26 08:42:00,
2013-04-26 03:52:00,40.0,36.0,-100.00,ENE,59,4.0,9.0,86,0.07,,,0.08,0.000000,,2013-04-26 08:52:00,
2013-04-26 04:01:00,40.0,36.0,-100.00,ENE,59,4.0,9.0,86,0.07,,,0.08,0.000000,,2013-04-26 09:01:00,
2013-04-26 04:33:00,40.0,34.0,-100.00,SE,138,4.0,10.0,78,0.00,,,0.08,0.000000,,2013-04-26 09:33:00,
2013-04-26 04:43:00,40.0,34.0,-100.00,SE,138,4.0,10.0,78,0.00,,,0.08,0.000000,,2013-04-26 09:43:00,
2013-04-26 04:53:00,40.0,34.0,-100.00,SE,138,4.0,10.0,78,0.00,,,0.08,0.000000,,2013-04-26 09:53:00,
2013-04-26 05:03:00,40.0,34.0,-100.00,SE,138,4.0,10.0,78,0.00,,,0.08,0.000000,,2013-04-26 10:03:00,
2013-04-26 05:33:00,38.0,31.0,-100.00,East,95,4.0,13.0,77,0.00,,,0.08,0.000000,,2013-04-26 10:33:00,
2013-04-26 05:42:00,38.0,31.0,-100.00,East,95,4.0,13.0,77,0.00,,,0.08,0.000000,,2013-04-26 10:42:00,
2013-04-26 05:52:00,38.0,31.0,-100.00,East,95,4.0,13.0,77,0.00,,,0.08,0.000000,,2013-04-26 10:52:00,
2013-04-26 06:02:00,38.0,31.0,-100.00,East,95,4.0,13.0,77,0.00,,,0.08,0.000000,,2013-04-26 11:02:00,
2013-04-26 06:32:00,36.0,30.0,-100.00,SE,126,3.0,6.0,80,0.00,,,0.08,0.000000,,2013-04-26 11:32:00,
2013-04-26 06:42:00,36.0,30.0,-100.00,SE,126,3.0,6.0,80,0.00,,,0.08,0.000000,,2013-04-26 11:42:00,
2013-04-26 06:52:00,36.0,30.0,-100.00,SE,126,3.0,6.0,80,0.00,,,0.08,0.000000,,2013-04-26 11:52:00,
2013-04-26 07:01:00,36.0,30.0,-100.00,SE,126,3.0,6.0,80,0.00,,,0.08,0.000000,,2013-04-26 12:01:00,
2013-04-26 07:32:00,43.0,37.0,-100.00,South,170,4.0,9.0,78,0.00,,,-99.99,31.000000,,2013-04-26 12:32:00,
2013-04-26 07:42:00,43.0,37.0,-100.00,South,170,4.0,9.0,78,0.00,,,-99.99,31.000000,,2013-04-26 12:42:00,
2013-04-26 07:52:00,43.0,37.0,-100.00,South,170,4.0,9.0,78,0.00,,,-99.99,31.000000,,2013-04-26 12:52:00,
2013-04-26 08:01:00,43.0,37.0,-100.00,South,170,4.0,9.0,78,0.00,,,-99.99,31.000000,,2013-04-26 13:01:00,
2013-04-26 08:32:00,49.0,37.0,-100.00,South,184,7.0,12.0,64,0.00,,,0.08,163.000000,,2013-04-26 13:32:00,
2013-04-26 08:42:00,49.0,37.0,-100.00,South,184,7.0,12.0,64,0.00,,,0.08,163.000000,,2013-04-26 13:42:00,
2013-04-26 08:52:00,49.0,37.0,-100.00,South,184,7.0,12.0,64,0.00,,,0.08,163.000000,,2013-04-26 13:52:00,
2013-04-26 09:01:00,49.0,37.0,-100.00,South,184,7.0,12.0,64,0.00,,,0.08,163.000000,,2013-04-26 14:01:00,
2013-04-26 09:32:00,54.0,38.0,-100.00,SSW,195,9.0,14.0,55,0.00,,,0.08,319.000000,,2013-04-26 14:32:00,
2013-04-26 09:42:00,54.0,38.0,-100.00,SSW,195,9.0,14.0,55,0.00,,,0.08,319.000000,,2013-04-26 14:42:00,
2013-04-26 09:52:00,54.0,38.0,-100.00,SSW,195,9.0,14.0,55,0.00,,,0.08,319.000000,,2013-04-26 14:52:00,
2013-04-26 10:01:00,54.0,38.0,-100.00,SSW,195,9.0,14.0,55,0.00,,,0.08,319.000000,,2013-04-26 15:01:00,
2013-04-26 10:33:00,58.0,39.0,-100.00,SW,219,8.0,15.0,49,0.01,,,0.09,508.000000,,2013-04-26 15:33:00,
2013-04-26 10:43:00,58.0,39.0,-100.00,SW,219,8.0,15.0,49,0.01,,,0.09,508.000000,,2013-04-26 15:43:00,
2013-04-26 10:53:00,58.0,39.0,-100.00,SW,219,8.0,15.0,49,0.01,,,0.09,508.000000,,2013-04-26 15:53:00,
2013-04-26 11:03:00,58.0,39.0,-100.00,SW,219,8.0,15.0,49,0.01,,,0.09,508.000000,,2013-04-26 16:03:00,
2013-04-26 11:33:00,60.0,38.0,-100.00,WSW,253,6.0,13.0,44,0.00,,,0.09,632.000000,,2013-04-26 16:33:00,
2013-04-26 11:42:00,60.0,38.0,-100.00,WSW,253,6.0,13.0,44,0.00,,,0.09,632.000000,,2013-04-26 16:42:00,
2013-04-26 11:53:00,60.0,38.0,-100.00,WSW,253,6.0,13.0,44,0.00,,,0.09,632.000000,,2013-04-26 16:53:00,
2013-04-26 12:02:00,60.0,38.0,-100.00,WSW,253,6.0,13.0,44,0.00,,,0.09,632.000000,,2013-04-26 17:02:00,
2013-04-26 12:32:00,64.0,39.0,-100.00,WNW,286,6.0,11.0,40,0.00,,,0.09,753.000000,,2013-04-26 17:32:00,
2013-04-26 12:42:00,64.0,39.0,-100.00,WNW,286,6.0,11.0,40,0.00,,,0.09,753.000000,,2013-04-26 17:42:00,
2013-04-26 12:52:00,64.0,39.0,-100.00,WNW,286,6.0,11.0,40,0.00,,,0.09,753.000000,,2013-04-26 17:52:00,
2013-04-26 13:02:00,64.0,39.0,-100.00,WNW,286,6.0,11.0,40,0.00,,,0.09,753.000000,,2013-04-26 18:02:00,
2013-04-26 13:33:00,67.0,41.0,-100.00,SSW,201,4.0,10.0,38,0.00,,,0.09,828.000000,,2013-04-26 18:33:00,
2013-04-26 13:42:00,67.0,41.0,-100.00,SSW,201,4.0,10.0,38,0.00,,,0.09,828.000000,,2013-04-26 18:42:00,
2013-04-26 13:52:00,67.0,41.0,-100.00,SSW,201,4.0,10.0,38,0.00,,,0.09,828.000000,,2013-04-26 18:52:00,
2013-04-26 14:01:00,67.0,41.0,-100.00,SSW,201,4.0,10.0,38,0.00,,,0.09,828.000000,,2013-04-26 19:01:00,
2013-04-26 14:32:00,69.0,39.0,-100.00,WSW,250,6.0,12.0,33,0.00,,,0.09,839.000000,,2013-04-26 19:32:00,
2013-04-26 14:42:00,69.0,39.0,-100.00,WSW,250,6.0,12.0,33,0.00,,,0.09,839.000000,,2013-04-26 19:42:00,
2013-04-26 14:52:00,69.0,39.0,-100.00,WSW,250,6.0,12.0,33,0.00,,,0.09,839.000000,,2013-04-26 19:52:00,
2013-04-26 15:02:00,69.0,39.0,-100.00,WSW,250,6.0,12.0,33,0.00,,,0.09,839.000000,,2013-04-26 20:02:00,
2013-04-26 15:32:00,71.0,40.0,-100.00,SSW,193,4.0,11.0,32,0.00,,,0.09,800.000000,,2013-04-26 20:32:00,
2013-04-26 15:42:00,71.0,40.0,-100.00,SSW,193,4.0,11.0,32,0.00,,,0.09,800.000000,,2013-04-26 20:42:00,
2013-04-26 15:52:00,71.0,40.0,-100.00,SSW,193,4.0,11.0,32,0.00,,,0.09,800.000000,,2013-04-26 20:52:00,
2013-04-26 16:02:00,71.0,40.0,-100.00,SSW,193,4.0,11.0,32,0.00,,,0.09,800.000000,,2013-04-26 21:02:00,
2013-04-26 16:33:00,72.0,34.0,-100.00,West,276,5.0,12.0,25,0.00,,,0.09,719.000000,,2013-04-26 21:33:00,
2013-04-26 16:42:00,72.0,34.0,-100.00,West,276,5.0,12.0,25,0.00,,,0.09,719.000000,,2013-04-26 21:42:00,
2013-04-26 16:53:00,72.0,34.0,-100.00,West,276,5.0,12.0,25,0.00,,,0.09,719.000000,,2013-04-26 21:53:00,
2013-04-26 17:02:00,72.0,34.0,-100.00,West,276,5.0,12.0,25,0.00,,,0.09,719.000000,,2013-04-26 22:02:00,
2013-04-26 17:33:00,71.0,31.0,-100.00,North,357,6.0,12.0,23,0.00,,,0.09,581.000000,,2013-04-26 22:33:00,
2013-04-26 17:42:00,71.0,31.0,-100.00,North,357,6.0,12.0,23,0.00,,,0.09,581.000000,,2013-04-26 22:42:00,
2013-04-26 17:52:00,71.0,31.0,-100.00,North,357,6.0,12.0,23,0.00,,,0.09,581.000000,,2013-04-26 22:52:00,
2013-04-26 18:02:00,71.0,31.0,-100.00,North,357,6.0,12.0,23,0.00,,,0.09,581.000000,,2013-04-26 23:02:00,
2013-04-26 18:32:00,71.0,33.0,-100.00,NW,305,5.0,14.0,25,0.00,,,0.09,406.000000,,2013-04-26 23:32:00,
2013-04-26 18:42:00,71.0,33.0,-100.00,NW,305,5.0,14.0,25,0.00,,,0.09,406.000000,,2013-04-26 23:42:00,
2013-04-26 18:52:00,71.0,33.0,-100.00,NW,305,5.0,14.0,25,0.00,,,0.09,406.000000,,2013-04-26 23:52:00,
2013-04-26 19:01:00,71.0,33.0,-100.00,NW,305,5.0,14.0,25,0.00,,,0.09,406.000000,,2013-04-27 00:01:00,
2013-04-26 19:32:00,69.0,35.0,-100.00,WSW,253,5.0,11.0,28,0.00,,,0.09,152.000000,,2013-04-27 00:32:00,
2013-04-26 19:42:00,69.0,35.0,-100.00,WSW,253,5.0,11.0,28,0.00,,,0.09,152.000000,,2013-04-27 00:42:00,
2013-04-26 19:52:00,69.0,35.0,-100.00,WSW,253,5.0,11.0,28,0.00,,,0.09,152.000000,,2013-04-27 00:52:00,
2013-04-26 20:01:00,69.0,35.0,-100.00,WSW,253,5.0,11.0,28,0.00,,,0.09,152.000000,,2013-04-27 01:01:00,
2013-04-26 20:32:00,63.0,29.0,-100.00,NNW,337,4.0,8.0,28,0.00,,,0.09,58.000000,,2013-04-27 01:32:00,
2013-04-26 20:42:00,63.0,29.0,-100.00,NNW,337,4.0,8.0,28,0.00,,,0.09,58.000000,,2013-04-27 01:42:00,
2013-04-26 20:52:00,63.0,29.0,-100.00,NNW,337,4.0,8.0,28,0.00,,,0.09,58.000000,,2013-04-27 01:52:00,
2013-04-26 21:01:00,63.0,29.0,-100.00,NNW,337,4.0,8.0,28,0.00,,,0.09,58.000000,,2013-04-27 02:01:00,
2013-04-26 21:32:00,53.0,29.0,-100.00,NNW,332,1.0,5.0,39,0.00,,,0.09,1.000000,,2013-04-27 02:32:00,
2013-04-26 21:42:00,53.0,29.0,-100.00,NNW,332,1.0,5.0,39,0.00,,,0.09,1.000000,,2013-04-27 02:42:00,
2013-04-26 21:52:00,53.0,29.0,-100.00,NNW,332,1.0,5.0,39,0.00,,,0.09,1.000000,,2013-04-27 02:52:00,
2013-04-26 22:02:00,53.0,29.0,-100.00,NNW,332,1.0,5.0,39,0.00,,,0.09,1.000000,,2013-04-27 03:02:00,
2013-04-26 22:33:00,46.0,30.0,-100.00,NW,315,1.0,3.0,54,0.00,,,0.09,0.000000,,2013-04-27 03:33:00,
2013-04-26 22:43:00,46.0,30.0,-100.00,NW,315,1.0,3.0,54,0.00,,,0.09,0.000000,,2013-04-27 03:43:00,
2013-04-26 22:53:00,46.0,30.0,-100.00,NW,315,1.0,3.0,54,0.00,,,0.09,0.000000,,2013-04-27 03:53:00,
2013-04-26 23:03:00,46.0,30.0,-100.00,NW,315,1.0,3.0,54,0.00,,,0.09,0.000000,,2013-04-27 04:03:00,
2013-04-26 23:33:00,40.0,29.0,-100.00,SSE,164,1.0,3.0,64,0.00,,,0.09,0.000000,,2013-04-27 04:33:00,
2013-04-26 23:43:00,40.0,29.0,-100.00,SSE,164,1.0,3.0,64,0.00,,,0.09,0.000000,,2013-04-27 04:43:00,
2013-04-26 23:53:00,40.0,29.0,-100.00,SSE,164,1.0,3.0,64,0.00,,,0.09,0.000000,,2013-04-27 04:53:00,